sensor_id;sensor_type;location;lat;lon;timestamp;P1;durP1;ratioP1;P2;durP2;ratioP2
20026;SDS011;10174;42.688;23.344;2023-12-20T00:01:47;339.02;;;138.70;;
20026;SDS011;10174;42.688;23.344;2023-12-20T00:04:12;333.83;;;137.15;;
20026;SDS011;10174;42.688;23.344;2023-12-20T00:06:38;341.15;;;134.82;;
20026;SDS011;10174;42.688;23.344;2023-12-20T00:09:03;332.88;;;137.30;;
20026;SDS011;10174;42.688;23.344;2023-12-20T00:11:29;346.65;;;140.40;;
20026;SDS011;10174;42.688;23.344;2023-12-20T00:13:54;330.40;;;133.82;;
20026;SDS011;10174;42.688;23.344;2023-12-20T00:16:20;329.35;;;133.25;;
20026;SDS011;10174;42.688;23.344;2023-12-20T00:18:45;342.90;;;134.77;;
20026;SDS011;10174;42.688;23.344;2023-12-20T00:21:10;311.33;;;126.63;;
20026;SDS011;10174;42.688;23.344;2023-12-20T00:23:36;334.73;;;133.80;;
20026;SDS011;10174;42.688;23.344;2023-12-20T00:26:01;339.33;;;134.70;;
20026;SDS011;10174;42.688;23.344;2023-12-20T00:28:27;335.38;;;132.38;;
20026;SDS011;10174;42.688;23.344;2023-12-20T00:30:54;312.00;;;122.80;;
20026;SDS011;10174;42.688;23.344;2023-12-20T00:33:19;292.48;;;119.47;;
20026;SDS011;10174;42.688;23.344;2023-12-20T00:35:45;315.15;;;125.97;;
20026;SDS011;10174;42.688;23.344;2023-12-20T00:38:10;317.42;;;127.32;;
20026;SDS011;10174;42.688;23.344;2023-12-20T00:40:36;281.40;;;109.82;;
20026;SDS011;10174;42.688;23.344;2023-12-20T00:43:02;284.35;;;110.57;;
20026;SDS011;10174;42.688;23.344;2023-12-20T00:45:28;279.83;;;111.07;;
20026;SDS011;10174;42.688;23.344;2023-12-20T00:47:54;277.38;;;109.57;;
20026;SDS011;10174;42.688;23.344;2023-12-20T00:50:19;280.95;;;109.13;;
20026;SDS011;10174;42.688;23.344;2023-12-20T00:52:46;274.00;;;107.45;;
20026;SDS011;10174;42.688;23.344;2023-12-20T00:55:12;256.63;;;101.18;;
20026;SDS011;10174;42.688;23.344;2023-12-20T00:57:38;262.13;;;103.75;;
20026;SDS011;10174;42.688;23.344;2023-12-20T01:00:03;255.85;;;100.00;;
20026;SDS011;10174;42.688;23.344;2023-12-20T01:02:29;253.48;;;103.88;;
20026;SDS011;10174;42.688;23.344;2023-12-20T01:04:55;261.17;;;104.03;;
20026;SDS011;10174;42.688;23.344;2023-12-20T01:07:20;276.30;;;107.97;;
20026;SDS011;10174;42.688;23.344;2023-12-20T01:09:46;378.33;;;148.50;;
20026;SDS011;10174;42.688;23.344;2023-12-20T01:12:11;548.95;;;227.63;;
20026;SDS011;10174;42.688;23.344;2023-12-20T01:14:37;555.65;;;232.30;;
20026;SDS011;10174;42.688;23.344;2023-12-20T01:17:04;555.80;;;237.13;;
20026;SDS011;10174;42.688;23.344;2023-12-20T01:19:30;499.70;;;206.57;;
20026;SDS011;10174;42.688;23.344;2023-12-20T01:21:55;373.00;;;148.57;;
20026;SDS011;10174;42.688;23.344;2023-12-20T01:24:21;329.88;;;133.30;;
20026;SDS011;10174;42.688;23.344;2023-12-20T01:26:46;370.65;;;146.82;;
20026;SDS011;10174;42.688;23.344;2023-12-20T01:29:12;363.70;;;142.77;;
20026;SDS011;10174;42.688;23.344;2023-12-20T01:31:39;414.58;;;160.15;;
20026;SDS011;10174;42.688;23.344;2023-12-20T01:34:05;358.73;;;138.05;;
20026;SDS011;10174;42.688;23.344;2023-12-20T01:36:31;296.55;;;119.75;;
20026;SDS011;10174;42.688;23.344;2023-12-20T01:38:56;426.95;;;169.95;;
20026;SDS011;10174;42.688;23.344;2023-12-20T01:41:22;303.75;;;124.20;;
20026;SDS011;10174;42.688;23.344;2023-12-20T01:43:47;302.10;;;121.07;;
20026;SDS011;10174;42.688;23.344;2023-12-20T01:46:13;308.77;;;123.53;;
20026;SDS011;10174;42.688;23.344;2023-12-20T01:48:39;329.70;;;130.60;;
20026;SDS011;10174;42.688;23.344;2023-12-20T01:51:05;306.85;;;122.88;;
20026;SDS011;10174;42.688;23.344;2023-12-20T01:53:31;299.00;;;119.57;;
20026;SDS011;10174;42.688;23.344;2023-12-20T01:55:57;303.33;;;120.90;;
20026;SDS011;10174;42.688;23.344;2023-12-20T01:58:23;319.02;;;123.03;;
20026;SDS011;10174;42.688;23.344;2023-12-20T02:00:50;323.58;;;130.02;;
20026;SDS011;10174;42.688;23.344;2023-12-20T02:03:16;309.17;;;125.32;;
20026;SDS011;10174;42.688;23.344;2023-12-20T02:05:42;327.27;;;132.10;;
20026;SDS011;10174;42.688;23.344;2023-12-20T02:08:09;347.27;;;138.15;;
20026;SDS011;10174;42.688;23.344;2023-12-20T02:10:34;342.70;;;137.27;;
20026;SDS011;10174;42.688;23.344;2023-12-20T02:13:00;357.92;;;137.20;;
20026;SDS011;10174;42.688;23.344;2023-12-20T02:15:25;411.73;;;161.10;;
20026;SDS011;10174;42.688;23.344;2023-12-20T02:17:51;423.00;;;164.98;;
20026;SDS011;10174;42.688;23.344;2023-12-20T02:20:16;420.13;;;161.40;;
20026;SDS011;10174;42.688;23.344;2023-12-20T02:22:42;403.10;;;157.38;;
20026;SDS011;10174;42.688;23.344;2023-12-20T02:25:07;396.13;;;154.45;;
20026;SDS011;10174;42.688;23.344;2023-12-20T02:27:33;386.85;;;148.90;;
20026;SDS011;10174;42.688;23.344;2023-12-20T02:30:00;386.77;;;149.15;;
20026;SDS011;10174;42.688;23.344;2023-12-20T02:32:25;402.45;;;150.38;;
20026;SDS011;10174;42.688;23.344;2023-12-20T02:34:51;388.30;;;146.07;;
20026;SDS011;10174;42.688;23.344;2023-12-20T02:37:17;370.90;;;142.05;;
20026;SDS011;10174;42.688;23.344;2023-12-20T02:39:42;375.88;;;143.65;;
20026;SDS011;10174;42.688;23.344;2023-12-20T02:42:08;369.48;;;140.07;;
20026;SDS011;10174;42.688;23.344;2023-12-20T02:44:33;359.60;;;137.93;;
20026;SDS011;10174;42.688;23.344;2023-12-20T02:46:59;341.48;;;128.27;;
20026;SDS011;10174;42.688;23.344;2023-12-20T02:49:24;324.08;;;127.18;;
20026;SDS011;10174;42.688;23.344;2023-12-20T02:51:50;312.98;;;124.35;;
20026;SDS011;10174;42.688;23.344;2023-12-20T02:54:15;319.95;;;123.68;;
20026;SDS011;10174;42.688;23.344;2023-12-20T02:56:41;318.83;;;119.50;;
20026;SDS011;10174;42.688;23.344;2023-12-20T02:59:06;331.15;;;122.50;;
20026;SDS011;10174;42.688;23.344;2023-12-20T03:01:33;319.90;;;117.97;;
20026;SDS011;10174;42.688;23.344;2023-12-20T03:03:59;316.00;;;114.43;;
20026;SDS011;10174;42.688;23.344;2023-12-20T03:06:25;316.02;;;110.03;;
20026;SDS011;10174;42.688;23.344;2023-12-20T03:08:50;308.67;;;106.57;;
20026;SDS011;10174;42.688;23.344;2023-12-20T03:11:16;336.83;;;108.45;;
20026;SDS011;10174;42.688;23.344;2023-12-20T03:13:41;311.40;;;102.22;;
20026;SDS011;10174;42.688;23.344;2023-12-20T03:16:10;364.95;;;106.28;;
20026;SDS011;10174;42.688;23.344;2023-12-20T03:18:36;403.98;;;98.40;;
20026;SDS011;10174;42.688;23.344;2023-12-20T03:21:02;339.75;;;95.70;;
20026;SDS011;10174;42.688;23.344;2023-12-20T03:23:29;331.92;;;96.38;;
20026;SDS011;10174;42.688;23.344;2023-12-20T03:25:55;327.05;;;96.53;;
20026;SDS011;10174;42.688;23.344;2023-12-20T03:28:21;302.52;;;98.25;;
20026;SDS011;10174;42.688;23.344;2023-12-20T03:30:48;306.73;;;100.35;;
20026;SDS011;10174;42.688;23.344;2023-12-20T03:33:13;302.27;;;101.10;;
20026;SDS011;10174;42.688;23.344;2023-12-20T03:35:39;339.67;;;107.03;;
20026;SDS011;10174;42.688;23.344;2023-12-20T03:38:04;316.40;;;99.43;;
20026;SDS011;10174;42.688;23.344;2023-12-20T03:40:30;303.92;;;101.68;;
20026;SDS011;10174;42.688;23.344;2023-12-20T03:42:55;276.45;;;96.25;;
20026;SDS011;10174;42.688;23.344;2023-12-20T03:45:20;318.42;;;105.47;;
20026;SDS011;10174;42.688;23.344;2023-12-20T03:47:46;329.13;;;108.00;;
20026;SDS011;10174;42.688;23.344;2023-12-20T03:50:12;323.80;;;105.18;;
20026;SDS011;10174;42.688;23.344;2023-12-20T03:52:38;302.10;;;101.95;;
20026;SDS011;10174;42.688;23.344;2023-12-20T03:55:03;322.95;;;106.07;;
20026;SDS011;10174;42.688;23.344;2023-12-20T03:57:29;314.50;;;106.13;;
20026;SDS011;10174;42.688;23.344;2023-12-20T03:59:55;321.40;;;106.50;;
20026;SDS011;10174;42.688;23.344;2023-12-20T04:02:20;327.80;;;106.72;;
20026;SDS011;10174;42.688;23.344;2023-12-20T04:04:45;273.52;;;93.13;;
20026;SDS011;10174;42.688;23.344;2023-12-20T04:07:11;256.65;;;88.97;;
20026;SDS011;10174;42.688;23.344;2023-12-20T04:09:37;270.58;;;91.65;;
20026;SDS011;10174;42.688;23.344;2023-12-20T04:12:02;288.23;;;94.50;;
20026;SDS011;10174;42.688;23.344;2023-12-20T04:14:28;311.60;;;109.22;;
20026;SDS011;10174;42.688;23.344;2023-12-20T04:16:54;312.73;;;109.60;;
20026;SDS011;10174;42.688;23.344;2023-12-20T04:19:19;317.65;;;111.28;;
20026;SDS011;10174;42.688;23.344;2023-12-20T04:21:45;307.88;;;109.50;;
20026;SDS011;10174;42.688;23.344;2023-12-20T04:24:11;298.30;;;103.60;;
20026;SDS011;10174;42.688;23.344;2023-12-20T04:26:36;278.10;;;93.32;;
20026;SDS011;10174;42.688;23.344;2023-12-20T04:29:02;277.23;;;92.25;;
20026;SDS011;10174;42.688;23.344;2023-12-20T04:31:27;292.50;;;96.70;;
20026;SDS011;10174;42.688;23.344;2023-12-20T04:33:53;306.90;;;96.82;;
20026;SDS011;10174;42.688;23.344;2023-12-20T04:36:18;270.10;;;91.43;;
20026;SDS011;10174;42.688;23.344;2023-12-20T04:38:44;301.70;;;97.30;;
20026;SDS011;10174;42.688;23.344;2023-12-20T04:41:09;305.88;;;99.25;;
20026;SDS011;10174;42.688;23.344;2023-12-20T04:43:34;297.83;;;100.47;;
20026;SDS011;10174;42.688;23.344;2023-12-20T04:46:00;332.70;;;108.43;;
20026;SDS011;10174;42.688;23.344;2023-12-20T04:48:25;346.60;;;111.20;;
20026;SDS011;10174;42.688;23.344;2023-12-20T04:50:51;331.58;;;114.55;;
20026;SDS011;10174;42.688;23.344;2023-12-20T04:53:16;331.45;;;114.28;;
20026;SDS011;10174;42.688;23.344;2023-12-20T04:55:42;289.75;;;105.90;;
20026;SDS011;10174;42.688;23.344;2023-12-20T04:58:07;308.75;;;109.60;;
20026;SDS011;10174;42.688;23.344;2023-12-20T05:00:33;275.75;;;103.25;;
20026;SDS011;10174;42.688;23.344;2023-12-20T05:02:58;290.88;;;109.30;;
20026;SDS011;10174;42.688;23.344;2023-12-20T05:05:24;295.88;;;107.30;;
20026;SDS011;10174;42.688;23.344;2023-12-20T05:07:49;323.70;;;114.55;;
20026;SDS011;10174;42.688;23.344;2023-12-20T05:10:14;336.52;;;117.80;;
20026;SDS011;10174;42.688;23.344;2023-12-20T05:12:41;367.85;;;124.38;;
20026;SDS011;10174;42.688;23.344;2023-12-20T05:15:06;385.55;;;123.80;;
20026;SDS011;10174;42.688;23.344;2023-12-20T05:17:32;580.70;;;124.75;;
20026;SDS011;10174;42.688;23.344;2023-12-20T05:19:58;535.38;;;126.68;;
20026;SDS011;10174;42.688;23.344;2023-12-20T05:22:23;412.40;;;127.45;;
20026;SDS011;10174;42.688;23.344;2023-12-20T05:24:49;423.92;;;122.47;;
20026;SDS011;10174;42.688;23.344;2023-12-20T05:27:14;397.17;;;123.72;;
20026;SDS011;10174;42.688;23.344;2023-12-20T05:29:40;416.75;;;125.28;;
20026;SDS011;10174;42.688;23.344;2023-12-20T05:32:05;433.80;;;131.38;;
20026;SDS011;10174;42.688;23.344;2023-12-20T05:34:31;460.52;;;134.13;;
20026;SDS011;10174;42.688;23.344;2023-12-20T05:36:57;473.10;;;133.70;;
20026;SDS011;10174;42.688;23.344;2023-12-20T05:39:23;408.05;;;129.50;;
20026;SDS011;10174;42.688;23.344;2023-12-20T05:41:49;370.50;;;117.43;;
20026;SDS011;10174;42.688;23.344;2023-12-20T05:44:14;353.30;;;117.85;;
20026;SDS011;10174;42.688;23.344;2023-12-20T05:46:40;385.83;;;125.22;;
20026;SDS011;10174;42.688;23.344;2023-12-20T05:49:05;365.15;;;116.68;;
20026;SDS011;10174;42.688;23.344;2023-12-20T05:51:31;372.50;;;117.07;;
20026;SDS011;10174;42.688;23.344;2023-12-20T05:53:58;368.73;;;115.93;;
20026;SDS011;10174;42.688;23.344;2023-12-20T05:56:23;344.58;;;114.20;;
20026;SDS011;10174;42.688;23.344;2023-12-20T05:58:49;350.63;;;116.90;;
20026;SDS011;10174;42.688;23.344;2023-12-20T06:01:14;347.50;;;121.57;;
20026;SDS011;10174;42.688;23.344;2023-12-20T06:03:42;328.40;;;113.82;;
20026;SDS011;10174;42.688;23.344;2023-12-20T06:06:08;376.25;;;125.03;;
20026;SDS011;10174;42.688;23.344;2023-12-20T06:08:34;375.48;;;123.28;;
20026;SDS011;10174;42.688;23.344;2023-12-20T06:11:00;352.42;;;115.45;;
20026;SDS011;10174;42.688;23.344;2023-12-20T06:13:25;332.50;;;116.38;;
20026;SDS011;10174;42.688;23.344;2023-12-20T06:15:52;342.40;;;119.53;;
20026;SDS011;10174;42.688;23.344;2023-12-20T06:18:19;326.77;;;111.38;;
20026;SDS011;10174;42.688;23.344;2023-12-20T06:20:44;329.05;;;113.85;;
20026;SDS011;10174;42.688;23.344;2023-12-20T06:23:09;355.38;;;111.45;;
20026;SDS011;10174;42.688;23.344;2023-12-20T06:25:35;335.25;;;111.95;;
20026;SDS011;10174;42.688;23.344;2023-12-20T06:28:00;307.90;;;107.60;;
20026;SDS011;10174;42.688;23.344;2023-12-20T06:30:26;277.42;;;101.32;;
20026;SDS011;10174;42.688;23.344;2023-12-20T06:32:52;286.10;;;101.15;;
20026;SDS011;10174;42.688;23.344;2023-12-20T06:35:19;262.90;;;99.05;;
20026;SDS011;10174;42.688;23.344;2023-12-20T06:37:45;265.75;;;92.68;;
20026;SDS011;10174;42.688;23.344;2023-12-20T06:40:10;269.23;;;98.68;;
20026;SDS011;10174;42.688;23.344;2023-12-20T06:42:36;325.77;;;100.55;;
20026;SDS011;10174;42.688;23.344;2023-12-20T06:45:02;276.40;;;101.85;;
20026;SDS011;10174;42.688;23.344;2023-12-20T06:47:28;297.95;;;99.72;;
20026;SDS011;10174;42.688;23.344;2023-12-20T06:49:54;292.70;;;102.78;;
20026;SDS011;10174;42.688;23.344;2023-12-20T06:52:19;298.77;;;97.82;;
20026;SDS011;10174;42.688;23.344;2023-12-20T06:54:45;278.67;;;95.53;;
20026;SDS011;10174;42.688;23.344;2023-12-20T06:57:10;283.75;;;95.75;;
20026;SDS011;10174;42.688;23.344;2023-12-20T06:59:39;285.13;;;97.80;;
20026;SDS011;10174;42.688;23.344;2023-12-20T07:02:05;325.63;;;99.90;;
20026;SDS011;10174;42.688;23.344;2023-12-20T07:04:31;318.58;;;97.05;;
20026;SDS011;10174;42.688;23.344;2023-12-20T07:06:56;318.70;;;96.35;;
20026;SDS011;10174;42.688;23.344;2023-12-20T07:09:25;329.90;;;109.30;;
20026;SDS011;10174;42.688;23.344;2023-12-20T07:11:51;321.85;;;102.13;;
20026;SDS011;10174;42.688;23.344;2023-12-20T07:14:16;322.58;;;99.25;;
20026;SDS011;10174;42.688;23.344;2023-12-20T07:16:42;298.73;;;95.32;;
20026;SDS011;10174;42.688;23.344;2023-12-20T07:19:07;297.30;;;98.93;;
20026;SDS011;10174;42.688;23.344;2023-12-20T07:21:33;351.25;;;103.43;;
20026;SDS011;10174;42.688;23.344;2023-12-20T07:23:58;322.17;;;97.50;;
20026;SDS011;10174;42.688;23.344;2023-12-20T07:26:24;336.50;;;99.20;;
20026;SDS011;10174;42.688;23.344;2023-12-20T07:28:49;308.83;;;94.10;;
20026;SDS011;10174;42.688;23.344;2023-12-20T07:31:15;301.92;;;93.28;;
20026;SDS011;10174;42.688;23.344;2023-12-20T07:33:41;347.73;;;98.93;;
20026;SDS011;10174;42.688;23.344;2023-12-20T07:36:07;299.63;;;94.70;;
20026;SDS011;10174;42.688;23.344;2023-12-20T07:38:32;348.70;;;101.20;;
20026;SDS011;10174;42.688;23.344;2023-12-20T07:40:58;294.08;;;97.22;;
20026;SDS011;10174;42.688;23.344;2023-12-20T07:43:24;297.50;;;97.53;;
20026;SDS011;10174;42.688;23.344;2023-12-20T07:45:49;302.20;;;95.88;;
20026;SDS011;10174;42.688;23.344;2023-12-20T07:48:15;307.42;;;97.82;;
20026;SDS011;10174;42.688;23.344;2023-12-20T07:50:41;301.10;;;97.55;;
20026;SDS011;10174;42.688;23.344;2023-12-20T07:53:07;333.17;;;99.43;;
20026;SDS011;10174;42.688;23.344;2023-12-20T07:55:33;284.15;;;95.30;;
20026;SDS011;10174;42.688;23.344;2023-12-20T07:57:59;311.13;;;99.70;;
20026;SDS011;10174;42.688;23.344;2023-12-20T08:00:25;338.45;;;100.78;;
20026;SDS011;10174;42.688;23.344;2023-12-20T08:02:51;313.90;;;103.93;;
20026;SDS011;10174;42.688;23.344;2023-12-20T08:05:16;293.67;;;101.95;;
20026;SDS011;10174;42.688;23.344;2023-12-20T08:07:42;295.05;;;97.20;;
20026;SDS011;10174;42.688;23.344;2023-12-20T08:10:07;298.50;;;96.68;;
20026;SDS011;10174;42.688;23.344;2023-12-20T08:12:33;285.30;;;100.30;;
20026;SDS011;10174;42.688;23.344;2023-12-20T08:14:59;312.40;;;109.85;;
20026;SDS011;10174;42.688;23.344;2023-12-20T08:17:24;292.15;;;102.55;;
20026;SDS011;10174;42.688;23.344;2023-12-20T08:19:50;326.08;;;115.93;;
20026;SDS011;10174;42.688;23.344;2023-12-20T08:22:16;266.35;;;91.53;;
20026;SDS011;10174;42.688;23.344;2023-12-20T08:24:42;261.50;;;89.00;;
20026;SDS011;10174;42.688;23.344;2023-12-20T08:27:07;260.58;;;87.35;;
20026;SDS011;10174;42.688;23.344;2023-12-20T08:29:34;245.38;;;88.30;;
20026;SDS011;10174;42.688;23.344;2023-12-20T08:32:00;216.65;;;78.68;;
20026;SDS011;10174;42.688;23.344;2023-12-20T08:34:26;195.05;;;71.55;;
20026;SDS011;10174;42.688;23.344;2023-12-20T08:36:52;202.70;;;72.80;;
20026;SDS011;10174;42.688;23.344;2023-12-20T08:39:18;189.07;;;69.90;;
20026;SDS011;10174;42.688;23.344;2023-12-20T08:41:43;199.63;;;72.93;;
20026;SDS011;10174;42.688;23.344;2023-12-20T08:44:09;197.00;;;71.82;;
20026;SDS011;10174;42.688;23.344;2023-12-20T08:46:35;198.65;;;77.07;;
20026;SDS011;10174;42.688;23.344;2023-12-20T08:49:00;210.05;;;80.70;;
20026;SDS011;10174;42.688;23.344;2023-12-20T08:51:26;201.10;;;73.18;;
20026;SDS011;10174;42.688;23.344;2023-12-20T08:53:52;208.45;;;73.03;;
20026;SDS011;10174;42.688;23.344;2023-12-20T08:56:18;209.20;;;72.97;;
20026;SDS011;10174;42.688;23.344;2023-12-20T08:58:44;213.23;;;73.85;;
20026;SDS011;10174;42.688;23.344;2023-12-20T09:01:10;234.05;;;77.30;;
20026;SDS011;10174;42.688;23.344;2023-12-20T09:03:36;209.02;;;73.88;;
20026;SDS011;10174;42.688;23.344;2023-12-20T09:06:01;239.07;;;76.82;;
20026;SDS011;10174;42.688;23.344;2023-12-20T09:08:27;253.43;;;82.72;;
20026;SDS011;10174;42.688;23.344;2023-12-20T09:10:52;257.30;;;81.10;;
20026;SDS011;10174;42.688;23.344;2023-12-20T09:13:18;255.73;;;83.05;;
20026;SDS011;10174;42.688;23.344;2023-12-20T09:15:43;274.25;;;83.63;;
20026;SDS011;10174;42.688;23.344;2023-12-20T09:18:09;264.45;;;82.60;;
20026;SDS011;10174;42.688;23.344;2023-12-20T09:20:34;272.02;;;85.55;;
20026;SDS011;10174;42.688;23.344;2023-12-20T09:23:00;274.90;;;86.72;;
20026;SDS011;10174;42.688;23.344;2023-12-20T09:25:26;271.75;;;85.80;;
20026;SDS011;10174;42.688;23.344;2023-12-20T09:27:52;289.63;;;86.13;;
20026;SDS011;10174;42.688;23.344;2023-12-20T09:30:18;299.27;;;93.28;;
20026;SDS011;10174;42.688;23.344;2023-12-20T09:32:45;276.08;;;84.03;;
20026;SDS011;10174;42.688;23.344;2023-12-20T09:35:10;266.63;;;85.50;;
20026;SDS011;10174;42.688;23.344;2023-12-20T09:37:36;270.05;;;82.82;;
20026;SDS011;10174;42.688;23.344;2023-12-20T09:40:01;277.25;;;85.40;;
20026;SDS011;10174;42.688;23.344;2023-12-20T09:42:38;277.48;;;85.70;;
20026;SDS011;10174;42.688;23.344;2023-12-20T09:45:13;261.50;;;77.97;;
20026;SDS011;10174;42.688;23.344;2023-12-20T09:47:42;274.67;;;83.88;;
20026;SDS011;10174;42.688;23.344;2023-12-20T09:50:08;260.10;;;78.82;;
20026;SDS011;10174;42.688;23.344;2023-12-20T09:52:35;255.30;;;81.15;;
20026;SDS011;10174;42.688;23.344;2023-12-20T09:55:01;241.93;;;76.28;;
20026;SDS011;10174;42.688;23.344;2023-12-20T09:57:31;220.57;;;68.88;;
20026;SDS011;10174;42.688;23.344;2023-12-20T09:59:57;246.18;;;73.57;;
20026;SDS011;10174;42.688;23.344;2023-12-20T10:02:23;213.05;;;70.10;;
20026;SDS011;10174;42.688;23.344;2023-12-20T10:04:52;236.55;;;70.07;;
20026;SDS011;10174;42.688;23.344;2023-12-20T10:07:19;239.98;;;71.80;;
20026;SDS011;10174;42.688;23.344;2023-12-20T10:09:45;245.38;;;74.63;;
20026;SDS011;10174;42.688;23.344;2023-12-20T10:12:12;237.27;;;71.65;;
20026;SDS011;10174;42.688;23.344;2023-12-20T10:14:38;252.45;;;75.20;;
20026;SDS011;10174;42.688;23.344;2023-12-20T10:17:04;228.13;;;70.60;;
20026;SDS011;10174;42.688;23.344;2023-12-20T10:19:31;241.02;;;71.80;;
20026;SDS011;10174;42.688;23.344;2023-12-20T10:21:57;231.43;;;70.13;;
20026;SDS011;10174;42.688;23.344;2023-12-20T10:24:24;246.07;;;73.90;;
20026;SDS011;10174;42.688;23.344;2023-12-20T10:29:35;246.95;;;75.20;;
20026;SDS011;10174;42.688;23.344;2023-12-20T10:34:49;246.52;;;77.15;;
20026;SDS011;10174;42.688;23.344;2023-12-20T10:37:15;238.63;;;76.45;;
20026;SDS011;10174;42.688;23.344;2023-12-20T10:39:41;227.20;;;71.60;;
20026;SDS011;10174;42.688;23.344;2023-12-20T10:42:08;233.20;;;72.22;;
20026;SDS011;10174;42.688;23.344;2023-12-20T10:44:36;228.57;;;72.85;;
20026;SDS011;10174;42.688;23.344;2023-12-20T10:47:02;250.60;;;77.18;;
20026;SDS011;10174;42.688;23.344;2023-12-20T10:49:29;242.27;;;75.25;;
20026;SDS011;10174;42.688;23.344;2023-12-20T10:51:56;248.35;;;76.18;;
20026;SDS011;10174;42.688;23.344;2023-12-20T10:54:27;255.63;;;78.75;;
20026;SDS011;10174;42.688;23.344;2023-12-20T10:56:53;258.10;;;80.68;;
20026;SDS011;10174;42.688;23.344;2023-12-20T10:59:19;264.30;;;80.45;;
20026;SDS011;10174;42.688;23.344;2023-12-20T11:01:45;260.05;;;78.65;;
20026;SDS011;10174;42.688;23.344;2023-12-20T11:04:15;274.15;;;82.60;;
20026;SDS011;10174;42.688;23.344;2023-12-20T11:07:04;267.65;;;83.45;;
20026;SDS011;10174;42.688;23.344;2023-12-20T11:09:56;275.38;;;89.72;;
20026;SDS011;10174;42.688;23.344;2023-12-20T11:15:03;274.33;;;86.00;;
20026;SDS011;10174;42.688;23.344;2023-12-20T11:17:29;283.75;;;89.40;;
20026;SDS011;10174;42.688;23.344;2023-12-20T11:22:22;264.05;;;85.25;;
20026;SDS011;10174;42.688;23.344;2023-12-20T11:24:51;270.80;;;86.22;;
20026;SDS011;10174;42.688;23.344;2023-12-20T11:27:18;283.95;;;88.28;;
20026;SDS011;10174;42.688;23.344;2023-12-20T11:29:51;301.67;;;94.63;;
20026;SDS011;10174;42.688;23.344;2023-12-20T11:34:59;284.20;;;89.88;;
20026;SDS011;10174;42.688;23.344;2023-12-20T11:37:42;279.50;;;88.43;;
20026;SDS011;10174;42.688;23.344;2023-12-20T11:40:08;304.27;;;94.68;;
20026;SDS011;10174;42.688;23.344;2023-12-20T11:42:40;317.52;;;108.78;;
20026;SDS011;10174;42.688;23.344;2023-12-20T11:45:11;300.30;;;96.53;;
20026;SDS011;10174;42.688;23.344;2023-12-20T11:47:40;289.40;;;95.65;;
20026;SDS011;10174;42.688;23.344;2023-12-20T11:50:07;284.23;;;93.38;;
20026;SDS011;10174;42.688;23.344;2023-12-20T11:52:32;291.25;;;96.18;;
20026;SDS011;10174;42.688;23.344;2023-12-20T11:54:58;287.85;;;96.47;;
20026;SDS011;10174;42.688;23.344;2023-12-20T11:57:24;291.13;;;97.85;;
20026;SDS011;10174;42.688;23.344;2023-12-20T11:59:50;282.50;;;95.85;;
20026;SDS011;10174;42.688;23.344;2023-12-20T12:02:16;285.33;;;98.20;;
20026;SDS011;10174;42.688;23.344;2023-12-20T12:04:41;286.90;;;95.95;;
20026;SDS011;10174;42.688;23.344;2023-12-20T12:07:07;284.90;;;95.65;;
20026;SDS011;10174;42.688;23.344;2023-12-20T12:09:32;257.55;;;91.15;;
20026;SDS011;10174;42.688;23.344;2023-12-20T12:11:58;244.77;;;87.35;;
20026;SDS011;10174;42.688;23.344;2023-12-20T12:14:24;244.27;;;84.38;;
20026;SDS011;10174;42.688;23.344;2023-12-20T12:16:49;244.55;;;82.65;;
20026;SDS011;10174;42.688;23.344;2023-12-20T12:19:19;232.10;;;80.72;;
20026;SDS011;10174;42.688;23.344;2023-12-20T12:21:49;245.50;;;78.93;;
20026;SDS011;10174;42.688;23.344;2023-12-20T12:24:15;227.82;;;75.72;;
20026;SDS011;10174;42.688;23.344;2023-12-20T12:26:49;219.48;;;76.88;;
20026;SDS011;10174;42.688;23.344;2023-12-20T12:29:15;229.10;;;78.18;;
20026;SDS011;10174;42.688;23.344;2023-12-20T12:31:40;236.23;;;78.53;;
20026;SDS011;10174;42.688;23.344;2023-12-20T12:34:06;219.30;;;71.35;;
20026;SDS011;10174;42.688;23.344;2023-12-20T12:36:34;224.77;;;72.82;;
20026;SDS011;10174;42.688;23.344;2023-12-20T12:39:02;233.27;;;78.97;;
20026;SDS011;10174;42.688;23.344;2023-12-20T12:41:29;220.13;;;74.43;;
20026;SDS011;10174;42.688;23.344;2023-12-20T12:43:55;208.50;;;71.57;;
20026;SDS011;10174;42.688;23.344;2023-12-20T12:46:20;228.40;;;78.32;;
20026;SDS011;10174;42.688;23.344;2023-12-20T12:48:46;233.20;;;79.65;;
20026;SDS011;10174;42.688;23.344;2023-12-20T12:51:12;242.02;;;82.38;;
20026;SDS011;10174;42.688;23.344;2023-12-20T12:53:38;264.42;;;83.93;;
20026;SDS011;10174;42.688;23.344;2023-12-20T12:56:04;274.20;;;88.15;;
20026;SDS011;10174;42.688;23.344;2023-12-20T12:58:30;286.75;;;92.93;;
20026;SDS011;10174;42.688;23.344;2023-12-20T13:00:56;297.15;;;95.78;;
20026;SDS011;10174;42.688;23.344;2023-12-20T13:03:22;334.83;;;104.28;;
20026;SDS011;10174;42.688;23.344;2023-12-20T13:05:47;305.15;;;94.85;;
20026;SDS011;10174;42.688;23.344;2023-12-20T13:08:13;299.95;;;91.95;;
20026;SDS011;10174;42.688;23.344;2023-12-20T13:10:40;284.77;;;87.60;;
20026;SDS011;10174;42.688;23.344;2023-12-20T13:13:05;296.08;;;91.60;;
20026;SDS011;10174;42.688;23.344;2023-12-20T13:15:31;297.40;;;92.80;;
20026;SDS011;10174;42.688;23.344;2023-12-20T13:17:56;285.10;;;86.95;;
20026;SDS011;10174;42.688;23.344;2023-12-20T13:20:22;285.67;;;85.35;;
20026;SDS011;10174;42.688;23.344;2023-12-20T13:22:47;292.70;;;87.32;;
20026;SDS011;10174;42.688;23.344;2023-12-20T13:25:13;279.80;;;89.28;;
20026;SDS011;10174;42.688;23.344;2023-12-20T13:27:39;300.50;;;90.95;;
20026;SDS011;10174;42.688;23.344;2023-12-20T13:30:05;298.75;;;90.65;;
20026;SDS011;10174;42.688;23.344;2023-12-20T13:32:31;299.15;;;95.05;;
20026;SDS011;10174;42.688;23.344;2023-12-20T13:34:56;285.77;;;90.78;;
20026;SDS011;10174;42.688;23.344;2023-12-20T13:37:22;306.30;;;89.63;;
20026;SDS011;10174;42.688;23.344;2023-12-20T13:39:47;315.52;;;95.60;;
20026;SDS011;10174;42.688;23.344;2023-12-20T13:42:13;294.50;;;86.57;;
20026;SDS011;10174;42.688;23.344;2023-12-20T13:44:39;274.02;;;86.18;;
20026;SDS011;10174;42.688;23.344;2023-12-20T13:47:05;306.98;;;95.78;;
20026;SDS011;10174;42.688;23.344;2023-12-20T13:49:31;326.38;;;103.63;;
20026;SDS011;10174;42.688;23.344;2023-12-20T13:51:57;332.85;;;108.70;;
20026;SDS011;10174;42.688;23.344;2023-12-20T13:54:23;320.65;;;100.88;;
20026;SDS011;10174;42.688;23.344;2023-12-20T13:56:49;309.60;;;94.15;;
20026;SDS011;10174;42.688;23.344;2023-12-20T13:59:14;298.83;;;86.25;;